Time;durP1;ratioP1;P1;durP2;ratioP2;P2;SDS_P1;SDS_P2;PMS_P1;PMS_P2;Temp;Humidity;BMP_temperature;BMP_pressure;BME280_temperature;BME280_humidity;BME280_pressure;Samples;Min_cycle;Max_cycle;Signal;HPM_P1;HPM_P2
2022/02/26 00:01:15;;;;;;;42.45;12.13;;;1.70;99.90;;;;;;5034738;28;20420;-75
2022/02/26 00:03:41;;;;;;;35.17;9.80;;;1.60;99.90;;;;;;5018926;28;20418;-74
2022/02/26 00:06:06;;;;;;;30.87;10.40;;;1.60;99.90;;;;;;5022788;28;20406;-76
2022/02/26 00:08:32;;;;;;;37.08;11.13;;;1.60;99.90;;;;;;5018032;28;20697;-75
2022/02/26 00:10:58;;;;;;;30.45;9.70;;;1.50;99.90;;;;;;5022303;28;20435;-75
2022/02/26 00:13:24;;;;;;;33.67;10.40;;;1.50;99.90;;;;;;5021361;28;20450;-74
2022/02/26 00:15:50;;;;;;;43.80;10.48;;;1.60;99.90;;;;;;5028543;28;20398;-76
2022/02/26 00:18:16;;;;;;;32.07;10.00;;;1.50;99.90;;;;;;5025309;28;20405;-75
2022/02/26 00:20:41;;;;;;;31.45;10.65;;;1.50;99.90;;;;;;5032118;28;20412;-74
2022/02/26 00:23:07;;;;;;;37.90;11.50;;;1.50;99.90;;;;;;5033208;28;20421;-73
2022/02/26 00:25:32;;;;;;;37.40;10.17;;;1.50;99.90;;;;;;5029974;28;20422;-73
2022/02/26 00:27:58;;;;;;;32.83;10.20;;;1.80;99.90;;;;;;5028518;28;20406;-73
2022/02/26 00:30:24;;;;;;;31.95;10.95;;;1.80;99.90;;;;;;5033092;28;20401;-75
2022/02/26 00:32:50;;;;;;;28.20;10.50;;;1.90;99.90;;;;;;5024570;28;20749;-74
2022/02/26 00:35:15;;;;;;;35.58;11.52;;;1.80;99.90;;;;;;5027345;28;20412;-77
2022/02/26 00:37:41;;;;;;;33.63;10.67;;;2.00;99.90;;;;;;5034135;28;20411;-76
2022/02/26 00:40:07;;;;;;;30.47;8.97;;;2.10;99.90;;;;;;5032505;28;20486;-76
2022/02/26 00:42:33;;;;;;;27.02;10.00;;;2.20;99.90;;;;;;5010276;28;20430;-76
2022/02/26 00:44:59;;;;;;;36.92;10.20;;;2.10;99.90;;;;;;5021713;28;20889;-78
2022/02/26 00:47:24;;;;;;;27.00;9.83;;;2.10;99.90;;;;;;5018964;28;20436;-74
2022/02/26 00:49:50;;;;;;;32.60;10.73;;;2.20;99.90;;;;;;5016906;28;20433;-75
2022/02/26 00:52:19;;;;;;;30.50;11.77;;;2.10;99.90;;;;;;5018044;28;20410;-75
2022/02/26 00:54:45;;;;;;;39.97;11.30;;;2.00;99.90;;;;;;5018835;28;20400;-75
2022/02/26 00:57:11;;;;;;;39.38;10.95;;;2.10;99.90;;;;;;5013906;28;21215;-75
2022/02/26 00:59:37;;;;;;;29.42;9.90;;;2.20;99.90;;;;;;5017352;28;20765;-74
2022/02/26 01:02:04;;;;;;;30.77;12.60;;;2.40;99.90;;;;;;5029152;28;20394;-76
2022/02/26 01:04:30;;;;;;;35.22;11.55;;;2.40;99.90;;;;;;5015952;28;20907;-76
2022/02/26 01:06:55;;;;;;;31.77;11.87;;;2.40;99.90;;;;;;5012202;28;20459;-77
2022/02/26 01:09:22;;;;;;;33.17;11.30;;;2.40;99.90;;;;;;5023901;28;20423;-76
2022/02/26 01:11:47;;;;;;;31.88;11.57;;;2.60;99.90;;;;;;5021130;28;20401;-76
2022/02/26 01:14:13;;;;;;;36.90;10.90;;;2.70;99.90;;;;;;5020520;28;20480;-76
2022/02/26 01:16:38;;;;;;;40.08;12.57;;;2.80;99.90;;;;;;5023213;28;20425;-76
2022/02/26 01:19:04;;;;;;;32.30;10.52;;;2.70;99.90;;;;;;5033024;28;20399;-76
2022/02/26 01:21:30;;;;;;;38.92;12.15;;;2.60;99.90;;;;;;5014542;28;20762;-75
2022/02/26 01:23:56;;;;;;;35.85;12.90;;;2.60;99.90;;;;;;5017731;28;20396;-74
2022/02/26 01:26:22;;;;;;;41.97;13.70;;;2.60;99.90;;;;;;5020878;28;20397;-74
2022/02/26 01:28:48;;;;;;;35.55;11.68;;;2.70;99.90;;;;;;5017016;28;20462;-75
2022/02/26 01:31:14;;;;;;;34.13;11.70;;;2.70;99.90;;;;;;5022151;28;20404;-75
2022/02/26 01:33:40;;;;;;;30.30;12.43;;;2.70;99.90;;;;;;5014828;28;20393;-75
2022/02/26 01:36:06;;;;;;;40.35;11.80;;;2.70;99.90;;;;;;5015549;28;20603;-75
2022/02/26 01:38:33;;;;;;;41.10;12.00;;;2.80;99.90;;;;;;5007230;28;20768;-75
2022/02/26 01:41:00;;;;;;;31.98;11.10;;;2.80;99.90;;;;;;5031473;28;20405;-75
2022/02/26 01:43:25;;;;;;;30.98;11.90;;;2.70;99.90;;;;;;5026251;28;20525;-76
2022/02/26 01:45:52;;;;;;;41.07;11.80;;;2.70;99.90;;;;;;5017041;28;20480;-75
2022/02/26 01:48:18;;;;;;;33.55;11.65;;;2.70;99.90;;;;;;5014339;28;20535;-75
2022/02/26 01:50:44;;;;;;;39.58;13.60;;;2.70;99.90;;;;;;5014789;28;20414;-74
2022/02/26 01:53:10;;;;;;;32.55;11.85;;;2.70;99.90;;;;;;5030421;28;20395;-74
2022/02/26 01:55:36;;;;;;;33.45;12.38;;;2.70;99.90;;;;;;5027980;28;20399;-76
2022/02/26 01:58:03;;;;;;;32.95;11.90;;;2.80;99.90;;;;;;5019123;28;20396;-75
2022/02/26 02:00:28;;;;;;;37.10;12.97;;;2.90;99.90;;;;;;5035480;28;20530;-75
2022/02/26 02:02:56;;;;;;;35.42;11.75;;;3.00;99.90;;;;;;5020226;28;20400;-76
2022/02/26 02:05:25;;;;;;;32.88;11.90;;;3.00;99.90;;;;;;5023806;28;20400;-75
2022/02/26 02:07:51;;;;;;;34.83;11.80;;;3.00;99.90;;;;;;5021027;28;20397;-76
2022/02/26 02:10:17;;;;;;;33.10;12.02;;;3.00;99.90;;;;;;5017075;28;20401;-76
2022/02/26 02:12:42;;;;;;;36.10;13.50;;;3.00;99.90;;;;;;5018738;28;20818;-76
2022/02/26 02:15:08;;;;;;;37.35;12.63;;;3.00;99.90;;;;;;5025618;28;20444;-76
2022/02/26 02:17:34;;;;;;;33.25;12.45;;;3.00;99.90;;;;;;5003560;28;20693;-76
2022/02/26 02:19:59;;;;;;;44.73;14.63;;;2.90;99.90;;;;;;5021126;28;20511;-75
2022/02/26 02:22:25;;;;;;;41.30;13.50;;;2.80;99.90;;;;;;5023269;28;20403;-76
2022/02/26 02:24:51;;;;;;;37.72;13.32;;;2.90;99.90;;;;;;5026093;28;20399;-76
2022/02/26 02:27:17;;;;;;;32.30;12.23;;;2.90;99.90;;;;;;5023688;28;20492;-75
2022/02/26 02:29:44;;;;;;;42.42;13.32;;;3.10;99.90;;;;;;5014666;28;20495;-76
2022/02/26 02:32:09;;;;;;;36.63;12.73;;;3.30;99.90;;;;;;5016701;28;20401;-76
2022/02/26 02:34:35;;;;;;;49.07;13.37;;;3.20;99.90;;;;;;5015372;28;20403;-75
2022/02/26 02:37:01;;;;;;;28.73;11.80;;;3.00;99.90;;;;;;5014508;28;20459;-75
2022/02/26 02:39:27;;;;;;;37.20;14.10;;;3.00;99.90;;;;;;5016648;28;20400;-76
2022/02/26 02:41:53;;;;;;;40.13;14.00;;;3.10;99.90;;;;;;5015560;28;20784;-74
2022/02/26 02:44:19;;;;;;;36.78;13.27;;;3.40;99.90;;;;;;5021259;28;20766;-75
2022/02/26 02:46:45;;;;;;;34.38;12.85;;;3.40;99.90;;;;;;5013901;28;20880;-75
2022/02/26 02:49:12;;;;;;;44.83;14.93;;;3.10;99.90;;;;;;5016202;28;20563;-75
2022/02/26 02:51:38;;;;;;;37.03;13.18;;;3.10;99.90;;;;;;5015224;28;20401;-74
2022/02/26 02:54:04;;;;;;;39.38;13.25;;;3.40;99.90;;;;;;5014532;28;20403;-74
2022/02/26 02:56:30;;;;;;;36.20;12.98;;;3.60;99.90;;;;;;5024977;28;20389;-74
2022/02/26 02:58:57;;;;;;;36.87;13.50;;;3.50;99.90;;;;;;5004556;28;20420;-74
2022/02/26 03:01:24;;;;;;;33.65;13.70;;;3.20;99.90;;;;;;5015915;28;20423;-74
2022/02/26 03:03:49;;;;;;;44.75;14.48;;;3.00;99.90;;;;;;5019920;28;20471;-74
2022/02/26 03:06:15;;;;;;;32.03;13.67;;;2.70;99.90;;;;;;5021275;28;20435;-74
2022/02/26 03:08:40;;;;;;;35.70;13.87;;;2.60;99.90;;;;;;5020377;28;20409;-75
2022/02/26 03:11:06;;;;;;;36.93;13.70;;;2.60;99.90;;;;;;5015049;28;20487;-74
2022/02/26 03:13:33;;;;;;;37.72;14.07;;;2.80;99.90;;;;;;5017462;28;20393;-74
2022/02/26 03:15:59;;;;;;;36.25;13.32;;;2.50;99.90;;;;;;5029840;28;20490;-73
2022/02/26 03:18:26;;;;;;;36.15;13.75;;;2.30;99.90;;;;;;5011116;28;20402;-74
2022/02/26 03:20:52;;;;;;;44.33;15.30;;;2.30;99.90;;;;;;5014395;28;20428;-74
2022/02/26 03:23:18;;;;;;;34.72;15.23;;;2.10;99.90;;;;;;5022954;28;20483;-74
2022/02/26 03:25:46;;;;;;;40.50;15.15;;;2.00;99.90;;;;;;5017915;28;20404;-74
2022/02/26 03:28:12;;;;;;;29.00;14.07;;;1.90;99.90;;;;;;5026439;28;20424;-74
2022/02/26 03:30:38;;;;;;;43.88;14.65;;;1.90;99.90;;;;;;5036112;28;20395;-75
2022/02/26 03:33:04;;;;;;;38.70;15.80;;;1.90;99.90;;;;;;5018078;28;20404;-75
2022/02/26 03:35:30;;;;;;;40.67;16.58;;;1.90;99.90;;;;;;5015095;28;20414;-75
2022/02/26 03:37:56;;;;;;;46.83;16.75;;;2.00;99.90;;;;;;5011546;28;20392;-75
2022/02/26 03:40:21;;;;;;;36.70;16.00;;;1.90;99.90;;;;;;5021165;28;20399;-73
2022/02/26 03:42:48;;;;;;;45.20;17.92;;;1.90;99.90;;;;;;5019526;28;20877;-73
2022/02/26 03:45:14;;;;;;;42.83;17.42;;;1.90;99.90;;;;;;5015614;28;20515;-73
2022/02/26 03:47:41;;;;;;;45.72;15.90;;;1.80;99.90;;;;;;5013822;28;20400;-74
2022/02/26 03:50:07;;;;;;;32.90;14.70;;;1.70;99.90;;;;;;5013709;28;20401;-75
2022/02/26 03:52:33;;;;;;;37.10;14.80;;;1.70;99.90;;;;;;5019423;28;20401;-74
2022/02/26 03:55:02;;;;;;;42.20;15.60;;;1.60;99.90;;;;;;5018692;28;20483;-75
2022/02/26 03:57:31;;;;;;;33.55;14.68;;;1.50;99.90;;;;;;5012622;28;20404;-75
2022/02/26 03:59:57;;;;;;;39.60;15.83;;;1.60;99.90;;;;;;5013999;28;20435;-75
2022/02/26 04:02:22;;;;;;;63.08;16.27;;;1.50;99.90;;;;;;5020176;28;20817;-74
2022/02/26 04:04:48;;;;;;;41.37;15.97;;;1.50;99.90;;;;;;5020951;28;20397;-75
2022/02/26 04:07:13;;;;;;;51.90;18.47;;;1.40;99.90;;;;;;5024701;28;20457;-75
2022/02/26 04:09:39;;;;;;;48.53;18.00;;;1.30;99.90;;;;;;5027680;28;20414;-75
2022/02/26 04:12:05;;;;;;;42.80;19.58;;;1.20;99.90;;;;;;5028611;28;20403;-75
2022/02/26 04:14:30;;;;;;;51.92;17.98;;;1.30;99.90;;;;;;5017300;28;20416;-75
2022/02/26 04:16:56;;;;;;;36.53;17.60;;;1.20;99.90;;;;;;5011762;28;20884;-75
2022/02/26 04:19:22;;;;;;;52.15;18.25;;;1.40;99.90;;;;;;5025563;28;20769;-75
2022/02/26 04:21:48;;;;;;;53.27;18.87;;;1.30;99.90;;;;;;5019776;28;20423;-75
2022/02/26 04:24:14;;;;;;;44.75;17.05;;;1.20;99.90;;;;;;5023556;28;20771;-75
2022/02/26 04:26:40;;;;;;;51.33;17.52;;;1.10;99.90;;;;;;5014784;28;20401;-74
2022/02/26 04:29:05;;;;;;;41.40;16.10;;;1.20;99.90;;;;;;5018353;28;20414;-75
2022/02/26 04:31:31;;;;;;;41.20;16.53;;;1.20;99.90;;;;;;5012161;28;20403;-74
2022/02/26 04:33:57;;;;;;;36.10;16.30;;;1.30;99.90;;;;;;5011240;28;20455;-74
2022/02/26 04:36:22;;;;;;;46.63;17.42;;;1.20;99.90;;;;;;5012224;28;20455;-74
2022/02/26 04:38:48;;;;;;;48.00;17.23;;;1.10;99.90;;;;;;5017551;28;20402;-73
2022/02/26 04:41:14;;;;;;;38.65;17.27;;;0.90;99.90;;;;;;5016563;28;20400;-74
2022/02/26 04:43:43;;;;;;;34.67;16.00;;;1.00;99.90;;;;;;5013869;28;20441;-75
2022/02/26 04:46:09;;;;;;;40.55;15.63;;;1.00;99.90;;;;;;5012509;28;20404;-75
2022/02/26 04:48:36;;;;;;;37.33;16.70;;;0.90;99.90;;;;;;5025901;28;20464;-75
2022/02/26 04:51:02;;;;;;;55.35;19.02;;;0.80;99.90;;;;;;5017357;28;20389;-75
2022/02/26 04:53:28;;;;;;;59.20;20.10;;;0.80;99.90;;;;;;5014825;28;20530;-74
2022/02/26 04:55:54;;;;;;;41.60;17.13;;;0.70;99.90;;;;;;5008565;28;20404;-75
2022/02/26 04:58:19;;;;;;;38.92;16.58;;;0.80;99.90;;;;;;5023701;28;20402;-75
2022/02/26 05:00:45;;;;;;;45.60;17.93;;;0.90;99.90;;;;;;5024244;28;20412;-75
2022/02/26 05:03:11;;;;;;;50.10;18.17;;;0.80;99.90;;;;;;5015754;28;20390;-75
2022/02/26 05:05:36;;;;;;;55.35;19.15;;;0.80;99.90;;;;;;5022631;28;20406;-75
2022/02/26 05:08:02;;;;;;;44.13;16.07;;;0.80;99.90;;;;;;5021166;28;20917;-75
2022/02/26 05:10:30;;;;;;;40.15;16.45;;;1.00;99.90;;;;;;5013799;28;20750;-75
2022/02/26 05:12:56;;;;;;;41.90;17.52;;;1.00;99.90;;;;;;5012549;28;20457;-75
2022/02/26 05:15:22;;;;;;;45.33;18.52;;;1.00;99.90;;;;;;5007904;28;20396;-75
2022/02/26 05:17:47;;;;;;;43.38;18.63;;;0.90;99.90;;;;;;5018775;28;20955;-75
2022/02/26 05:20:14;;;;;;;42.53;17.17;;;1.00;99.90;;;;;;5024341;28;20407;-75
2022/02/26 05:22:41;;;;;;;43.45;17.63;;;1.20;99.90;;;;;;5019389;28;20410;-74
2022/02/26 05:25:08;;;;;;;45.58;18.27;;;1.20;99.90;;;;;;5023205;28;20406;-74
2022/02/26 05:27:33;;;;;;;50.95;20.27;;;1.00;99.90;;;;;;5024415;28;20403;-75
2022/02/26 05:30:00;;;;;;;53.47;20.70;;;0.90;99.90;;;;;;4994643;28;20574;-74
2022/02/26 05:32:25;;;;;;;46.63;19.23;;;0.80;99.90;;;;;;5001610;28;20399;-74
2022/02/26 05:34:51;;;;;;;58.50;21.10;;;0.70;99.90;;;;;;5013520;28;20756;-74
2022/02/26 05:37:21;;;;;;;62.95;21.38;;;0.70;99.90;;;;;;5017541;28;20484;-75
2022/02/26 05:39:47;;;;;;;58.57;20.77;;;0.70;99.90;;;;;;5014821;28;20518;-75
2022/02/26 05:42:14;;;;;;;57.03;23.30;;;0.70;99.90;;;;;;5026901;28;20402;-75
2022/02/26 05:44:40;;;;;;;48.92;21.55;;;0.70;99.90;;;;;;5025863;28;20396;-74
2022/02/26 05:47:05;;;;;;;55.93;22.30;;;0.80;99.90;;;;;;5006673;28;20845;-74
2022/02/26 05:49:31;;;;;;;50.33;21.90;;;0.80;99.90;;;;;;5024454;28;20759;-74
2022/02/26 05:51:57;;;;;;;47.73;20.27;;;0.90;99.90;;;;;;5008207;28;20389;-74
2022/02/26 05:54:23;;;;;;;49.03;21.05;;;0.90;99.90;;;;;;5012843;28;20396;-74
2022/02/26 05:56:49;;;;;;;72.00;24.47;;;1.10;99.90;;;;;;5026805;28;20403;-74
2022/02/26 05:59:14;;;;;;;80.20;24.55;;;1.30;99.90;;;;;;5028057;28;20392;-73
2022/02/26 06:01:40;;;;;;;98.57;27.80;;;1.30;99.90;;;;;;5017260;28;20405;-74
2022/02/26 06:04:06;;;;;;;127.27;30.07;;;1.60;99.90;;;;;;5031185;28;20493;-77
2022/02/26 06:06:31;;;;;;;130.68;27.65;;;1.50;99.90;;;;;;5025849;28;20495;-75
2022/02/26 06:08:57;;;;;;;156.88;30.75;;;1.70;99.90;;;;;;5016034;28;20444;-74
2022/02/26 06:11:22;;;;;;;146.17;30.27;;;1.60;99.90;;;;;;5010346;28;20413;-75
2022/02/26 06:13:48;;;;;;;163.20;31.17;;;1.80;99.90;;;;;;5023584;28;20488;-75
2022/02/26 06:16:14;;;;;;;147.07;30.65;;;1.80;99.90;;;;;;5021690;28;20395;-75
2022/02/26 06:18:40;;;;;;;131.23;34.03;;;1.80;99.90;;;;;;5020523;28;20804;-74
2022/02/26 06:21:06;;;;;;;181.43;33.08;;;2.00;99.90;;;;;;5026571;28;20405;-73
2022/02/26 06:23:31;;;;;;;269.53;37.83;;;2.00;99.90;;;;;;5023761;28;20854;-74
2022/02/26 06:25:57;;;;;;;123.60;32.43;;;2.10;99.90;;;;;;5016303;28;20428;-74
2022/02/26 06:28:23;;;;;;;139.33;31.70;;;2.20;99.90;;;;;;5025447;28;20419;-73
2022/02/26 06:30:48;;;;;;;140.05;31.60;;;2.50;99.90;;;;;;5026163;28;20431;-73
2022/02/26 06:33:14;;;;;;;139.00;31.10;;;2.50;99.90;;;;;;5029620;28;20445;-74
2022/02/26 06:35:41;;;;;;;135.10;31.95;;;2.70;99.90;;;;;;5017313;28;20480;-76
2022/02/26 06:38:07;;;;;;;113.13;33.78;;;2.70;99.90;;;;;;5020265;28;20391;-74
2022/02/26 06:40:33;;;;;;;123.53;33.35;;;2.60;99.90;;;;;;5024997;28;20436;-74
2022/02/26 06:42:59;;;;;;;110.90;34.90;;;2.40;99.90;;;;;;5012724;28;20854;-72
2022/02/26 06:45:24;;;;;;;119.13;35.58;;;2.40;99.90;;;;;;5015944;28;20484;-73
2022/02/26 06:47:50;;;;;;;113.63;35.03;;;2.40;99.90;;;;;;5018971;28;20432;-73
2022/02/26 06:50:16;;;;;;;114.67;36.67;;;2.40;99.90;;;;;;5019407;28;20407;-72
2022/02/26 06:52:41;;;;;;;108.57;33.15;;;2.40;99.90;;;;;;5014814;28;20457;-73
2022/02/26 06:55:07;;;;;;;107.90;31.80;;;2.50;99.90;;;;;;5008943;28;20942;-72
2022/02/26 06:57:33;;;;;;;105.00;31.23;;;2.50;99.90;;;;;;5016082;28;20871;-72
2022/02/26 06:59:59;;;;;;;115.55;33.50;;;2.50;99.90;;;;;;5017058;28;20416;-72
2022/02/26 07:02:24;;;;;;;106.20;32.10;;;2.70;99.90;;;;;;5018611;28;20410;-73
2022/02/26 07:04:50;;;;;;;113.07;33.83;;;2.80;99.90;;;;;;5025898;28;20483;-76
2022/02/26 07:07:15;;;;;;;113.17;36.23;;;2.80;99.90;;;;;;5026847;28;20395;-75
2022/02/26 07:09:42;;;;;;;126.47;34.85;;;2.80;99.90;;;;;;5012925;28;20424;-73
2022/02/26 07:12:09;;;;;;;117.95;36.47;;;2.80;99.90;;;;;;5015485;28;20419;-74
2022/02/26 07:14:35;;;;;;;99.70;33.67;;;2.80;99.90;;;;;;5020819;28;20745;-74
2022/02/26 07:17:01;;;;;;;101.05;34.00;;;2.90;99.90;;;;;;5012612;28;20396;-74
2022/02/26 07:19:26;;;;;;;130.27;38.33;;;2.90;99.90;;;;;;5007410;28;20397;-75
2022/02/26 07:21:52;;;;;;;124.30;35.92;;;3.10;99.90;;;;;;5013378;28;20407;-74
2022/02/26 07:24:18;;;;;;;146.98;37.22;;;3.00;99.90;;;;;;5016987;28;20881;-75
2022/02/26 07:26:43;;;;;;;124.40;39.77;;;2.80;99.90;;;;;;5012849;28;20436;-73
2022/02/26 07:29:09;;;;;;;155.13;40.73;;;2.90;99.90;;;;;;5008895;28;20413;-73
2022/02/26 07:31:35;;;;;;;178.02;42.38;;;3.10;99.90;;;;;;5010138;28;20404;-73
2022/02/26 07:34:01;;;;;;;172.97;43.87;;;3.20;99.90;;;;;;5013661;28;20401;-73
2022/02/26 07:36:27;;;;;;;150.70;42.15;;;3.30;99.90;;;;;;5011105;28;20463;-73
2022/02/26 07:38:52;;;;;;;151.68;43.75;;;3.50;99.90;;;;;;5011270;28;20440;-74
2022/02/26 07:41:18;;;;;;;184.17;45.87;;;3.60;99.90;;;;;;5010120;28;20841;-73
2022/02/26 07:43:43;;;;;;;241.00;50.20;;;3.60;99.90;;;;;;5009790;28;20484;-73
2022/02/26 07:46:09;;;;;;;180.33;47.87;;;3.70;99.90;;;;;;5010016;28;20404;-73
2022/02/26 07:48:35;;;;;;;221.87;47.37;;;3.70;99.90;;;;;;5010561;28;20444;-74
2022/02/26 07:51:01;;;;;;;182.00;45.77;;;4.00;99.90;;;;;;5018869;28;20398;-75
2022/02/26 07:53:27;;;;;;;211.10;45.42;;;4.00;99.90;;;;;;5016261;28;20397;-74
2022/02/26 07:55:52;;;;;;;225.45;46.80;;;4.00;99.90;;;;;;5005986;28;20384;-75
2022/02/26 07:58:20;;;;;;;230.60;45.45;;;4.00;99.90;;;;;;5015499;28;20885;-75
2022/02/26 08:00:46;;;;;;;172.98;44.58;;;4.00;99.90;;;;;;5016118;28;20408;-75
2022/02/26 08:03:12;;;;;;;183.50;43.95;;;4.10;99.90;;;;;;5010834;28;20439;-75
2022/02/26 08:05:37;;;;;;;148.25;37.85;;;4.60;99.90;;;;;;5013994;28;20856;-75
2022/02/26 08:08:03;;;;;;;129.60;40.93;;;4.50;99.90;;;;;;5022732;28;20558;-76
2022/02/26 08:10:29;;;;;;;154.10;41.10;;;4.40;99.90;;;;;;5027518;28;20447;-74
2022/02/26 08:12:56;;;;;;;169.48;42.28;;;4.20;99.90;;;;;;5030700;28;20405;-76
2022/02/26 08:15:23;;;;;;;193.55;42.58;;;3.80;99.90;;;;;;5019476;28;20397;-75
2022/02/26 08:17:49;;;;;;;156.55;42.47;;;3.80;99.90;;;;;;5009503;28;20433;-75
2022/02/26 08:20:17;;;;;;;132.77;37.70;;;4.00;99.90;;;;;;5010844;28;20413;-76
2022/02/26 08:22:43;;;;;;;123.78;36.45;;;4.10;99.90;;;;;;5012761;28;20452;-76
2022/02/26 08:25:10;;;;;;;121.28;37.17;;;4.20;99.90;;;;;;5010145;28;20393;-75
2022/02/26 08:27:40;;;;;;;143.95;37.33;;;4.30;99.90;;;;;;5009442;28;20419;-74
2022/02/26 08:30:07;;;;;;;146.15;37.80;;;4.40;99.90;;;;;;4992564;28;20421;-76
2022/02/26 08:32:33;;;;;;;135.20;36.20;;;4.40;99.90;;;;;;4992828;28;20404;-76
2022/02/26 08:34:58;;;;;;;134.10;37.73;;;4.30;99.90;;;;;;5010811;28;20397;-74
2022/02/26 08:37:24;;;;;;;118.05;35.38;;;4.30;99.90;;;;;;4992600;28;20890;-74
2022/02/26 08:39:50;;;;;;;109.75;34.92;;;4.40;99.90;;;;;;5010329;28;20404;-74
2022/02/26 08:42:15;;;;;;;104.97;32.80;;;4.60;99.90;;;;;;5011031;28;20608;-75
2022/02/26 08:44:41;;;;;;;105.67;34.87;;;4.70;99.90;;;;;;5009916;28;20759;-75
2022/02/26 08:47:07;;;;;;;107.37;35.30;;;4.70;99.90;;;;;;4996855;28;20411;-75
2022/02/26 08:49:33;;;;;;;108.15;33.33;;;4.70;99.90;;;;;;5008245;28;20507;-77
2022/02/26 08:51:59;;;;;;;110.97;34.40;;;4.70;99.90;;;;;;5008422;28;20834;-75
2022/02/26 08:54:25;;;;;;;115.93;36.35;;;4.70;99.90;;;;;;5009818;28;20392;-74
2022/02/26 08:56:50;;;;;;;118.38;36.17;;;4.80;99.90;;;;;;5010082;28;20874;-73
2022/02/26 08:59:16;;;;;;;106.93;37.13;;;4.70;99.30;;;;;;5008316;28;20459;-75
2022/02/26 09:01:42;;;;;;;98.90;35.50;;;5.00;99.90;;;;;;5008957;28;20397;-74
2022/02/26 09:04:08;;;;;;;112.60;35.58;;;4.80;91.70;;;;;;5010256;28;20776;-76
2022/02/26 09:06:35;;;;;;;117.57;36.70;;;5.00;99.90;;;;;;5008740;28;20404;-75
2022/02/26 09:09:04;;;;;;;117.25;37.78;;;5.10;99.30;;;;;;5006980;28;20412;-76
2022/02/26 09:11:29;;;;;;;115.50;37.95;;;5.50;93.90;;;;;;5013172;28;20393;-75
2022/02/26 09:13:55;;;;;;;96.93;34.37;;;5.40;84.90;;;;;;5010823;28;22438;-73
2022/02/26 09:16:21;;;;;;;103.10;34.83;;;5.20;84.70;;;;;;5022086;28;20558;-75
2022/02/26 09:18:46;;;;;;;107.60;36.80;;;5.20;86.90;;;;;;5020118;28;20455;-74
2022/02/26 09:21:13;;;;;;;93.70;36.07;;;5.50;85.30;;;;;;5019485;28;20409;-74
2022/02/26 09:23:39;;;;;;;92.03;35.03;;;5.40;82.30;;;;;;5016841;28;20400;-77
2022/02/26 09:26:06;;;;;;;97.28;35.35;;;5.50;78.80;;;;;;5020496;28;20420;-74
2022/02/26 09:28:39;;;;;;;95.72;33.90;;;5.50;82.70;;;;;;5013549;28;20412;-74
2022/02/26 09:31:05;;;;;;;75.57;32.05;;;5.80;79.60;;;;;;5012690;28;20549;-74
2022/02/26 09:33:31;;;;;;;89.47;32.78;;;6.00;78.00;;;;;;5026106;28;20415;-76
2022/02/26 09:35:59;;;;;;;92.82;34.60;;;6.10;67.10;;;;;;5015566;28;20392;-76
2022/02/26 09:38:25;;;;;;;90.93;33.97;;;5.70;73.50;;;;;;5015128;28;20412;-75
2022/02/26 09:40:53;;;;;;;90.80;34.40;;;6.00;75.10;;;;;;5014896;28;20401;-75
2022/02/26 09:43:20;;;;;;;97.00;34.65;;;6.10;66.90;;;;;;5014413;28;20450;-75
2022/02/26 09:45:46;;;;;;;87.53;33.15;;;5.70;70.80;;;;;;5014432;28;20401;-75
2022/02/26 09:48:12;;;;;;;83.90;33.90;;;5.70;71.50;;;;;;5014132;28;20882;-76
2022/02/26 09:50:38;;;;;;;83.90;32.75;;;5.90;73.60;;;;;;5013133;28;20600;-75
2022/02/26 09:53:04;;;;;;;72.72;31.55;;;6.30;67.00;;;;;;5014367;28;20896;-75
2022/02/26 09:55:31;;;;;;;73.97;31.27;;;6.50;65.30;;;;;;5014058;28;20484;-75
2022/02/26 09:57:57;;;;;;;72.60;30.50;;;6.50;59.30;;;;;;5013516;28;20508;-75
2022/02/26 10:00:22;;;;;;;81.00;30.85;;;6.10;60.90;;;;;;5013891;28;20467;-75
2022/02/26 10:02:49;;;;;;;82.40;31.33;;;6.20;64.00;;;;;;5012625;28;20504;-75
2022/02/26 10:05:16;;;;;;;76.80;31.75;;;6.30;60.30;;;;;;5014364;28;20429;-75
2022/02/26 10:07:42;;;;;;;71.07;29.00;;;6.30;65.40;;;;;;4996534;28;20423;-75
2022/02/26 10:10:19;;;;;;;79.80;30.38;;;6.50;62.80;;;;;;5013717;28;20413;-74
2022/02/26 10:12:50;;;;;;;64.40;26.52;;;6.70;59.00;;;;;;5012461;28;20883;-74
2022/02/26 10:15:24;;;;;;;71.07;28.65;;;6.50;58.70;;;;;;5013650;28;20404;-74
2022/02/26 10:18:09;;;;;;;64.57;26.80;;;6.60;60.10;;;;;;5012916;28;20382;-75
2022/02/26 10:20:43;;;;;;;62.30;25.55;;;6.30;61.30;;;;;;5013571;28;20458;-75
2022/02/26 10:23:15;;;;;;;62.25;24.90;;;6.60;61.80;;;;;;5015704;28;20466;-75
2022/02/26 10:25:40;;;;;;;62.25;25.13;;;6.70;56.20;;;;;;5012863;28;20399;-74
2022/02/26 10:28:11;;;;;;;53.35;22.30;;;6.80;57.80;;;;;;5010718;28;20404;-75
2022/02/26 10:30:40;;;;;;;51.60;21.02;;;6.80;51.80;;;;;;5017024;28;20424;-74
2022/02/26 10:33:08;;;;;;;56.90;24.20;;;6.50;52.60;;;;;;5023735;28;20414;-73
2022/02/26 10:35:47;;;;;;;59.60;25.38;;;6.40;56.40;;;;;;5030626;28;20399;-73
2022/02/26 10:38:12;;;;;;;57.08;24.63;;;6.70;53.80;;;;;;4998754;28;20732;-72
2022/02/26 10:40:57;;;;;;;55.90;23.43;;;6.90;55.40;;;;;;5013908;28;20399;-72
2022/02/26 10:43:48;;;;;;;51.80;24.65;;;7.00;54.00;;;;;;5013542;28;20396;-73
2022/02/26 10:46:16;;;;;;;57.40;25.50;;;7.20;51.60;;;;;;5010459;28;20762;-73
2022/02/26 10:48:43;;;;;;;65.50;25.83;;;7.60;48.80;;;;;;5012860;28;20394;-74
2022/02/26 10:51:21;;;;;;;54.72;25.02;;;7.60;46.40;;;;;;5013754;28;20397;-74
2022/02/26 10:53:46;;;;;;;65.30;25.38;;;7.60;44.60;;;;;;5011632;28;20455;-73
2022/02/26 10:56:13;;;;;;;65.28;23.95;;;7.20;47.70;;;;;;5012950;28;20393;-74
2022/02/26 10:58:41;;;;;;;55.53;24.67;;;7.30;46.20;;;;;;5010996;28;20401;-75
2022/02/26 11:01:09;;;;;;;57.28;23.85;;;7.50;46.40;;;;;;5014564;28;20516;-73
2022/02/26 11:03:35;;;;;;;55.22;23.20;;;8.10;45.00;;;;;;4994335;28;20407;-73
2022/02/26 11:06:02;;;;;;;56.75;23.45;;;8.20;41.60;;;;;;5012229;28;20397;-75
2022/02/26 11:08:29;;;;;;;61.20;22.08;;;7.80;42.00;;;;;;5008106;28;20426;-78
2022/02/26 11:10:57;;;;;;;51.35;21.17;;;7.70;42.70;;;;;;5013182;28;20403;-75
2022/02/26 11:13:23;;;;;;;61.05;23.77;;;7.60;41.80;;;;;;4995272;28;20434;-74
2022/02/26 11:15:51;;;;;;;64.40;26.13;;;7.80;43.10;;;;;;5013672;28;20397;-74
2022/02/26 11:18:19;;;;;;;55.42;24.52;;;7.80;43.00;;;;;;5014100;28;20789;-75
2022/02/26 11:20:45;;;;;;;68.63;26.00;;;8.00;41.90;;;;;;5015101;28;20406;-74
2022/02/26 11:23:12;;;;;;;62.47;25.65;;;7.50;42.90;;;;;;5013713;28;20420;-75
2022/02/26 11:25:38;;;;;;;54.67;25.30;;;6.80;47.80;;;;;;5014296;28;20436;-75
2022/02/26 11:28:06;;;;;;;64.97;25.92;;;7.10;49.10;;;;;;4996777;28;20436;-74
2022/02/26 11:30:40;;;;;;;61.95;25.83;;;6.70;50.70;;;;;;5016350;28;20468;-75
2022/02/26 11:33:06;;;;;;;60.67;24.10;;;6.90;50.50;;;;;;5014101;28;20844;-75
2022/02/26 11:35:32;;;;;;;61.90;24.33;;;6.80;45.70;;;;;;5013715;28;20397;-77
2022/02/26 11:38:07;;;;;;;55.50;24.87;;;6.70;46.80;;;;;;5013008;28;20730;-75
2022/02/26 11:40:33;;;;;;;57.70;23.98;;;7.10;45.40;;;;;;5014172;28;20397;-75
2022/02/26 11:42:59;;;;;;;56.78;24.70;;;7.20;43.80;;;;;;5012951;28;20400;-76
2022/02/26 11:45:33;;;;;;;77.05;26.13;;;6.90;44.90;;;;;;5013545;28;20796;-77
2022/02/26 11:48:08;;;;;;;58.55;24.83;;;6.80;47.10;;;;;;5014384;28;20389;-74
2022/02/26 11:50:39;;;;;;;59.28;23.80;;;7.20;46.00;;;;;;5013195;28;20750;-75
2022/02/26 11:53:09;;;;;;;62.47;25.03;;;7.40;45.80;;;;;;5013478;28;20403;-75
2022/02/26 11:55:50;;;;;;;59.90;21.52;;;7.60;43.50;;;;;;5013398;28;20703;-74
2022/02/26 11:58:17;;;;;;;52.38;21.15;;;7.40;43.90;;;;;;5012725;28;20706;-73
2022/02/26 12:00:44;;;;;;;53.15;21.45;;;7.50;42.50;;;;;;5013003;28;20397;-74
2022/02/26 12:03:21;;;;;;;57.87;20.97;;;7.40;41.90;;;;;;5032350;28;20393;-74
2022/02/26 12:05:51;;;;;;;60.63;20.73;;;7.40;39.20;;;;;;5027072;28;20478;-74
2022/02/26 12:08:20;;;;;;;50.50;20.52;;;7.20;41.00;;;;;;5013107;28;20481;-75
2022/02/26 12:10:56;;;;;;;57.33;19.90;;;7.60;42.10;;;;;;5012632;28;20898;-75
2022/02/26 12:13:41;;;;;;;48.85;19.58;;;7.70;41.70;;;;;;5012861;28;20888;-76
2022/02/26 12:16:22;;;;;;;56.05;19.80;;;7.70;40.50;;;;;;4995523;28;20412;-76
2022/02/26 12:18:58;;;;;;;47.13;18.30;;;7.70;39.50;;;;;;5012266;28;20408;-74
2022/02/26 12:21:29;;;;;;;49.83;18.17;;;7.80;39.80;;;;;;5020156;28;20395;-73
2022/02/26 12:24:19;;;;;;;45.80;16.77;;;7.90;38.00;;;;;;5016028;28;20399;-74
2022/02/26 12:27:07;;;;;;;45.72;16.23;;;8.00;37.30;;;;;;5022216;28;20411;-75
2022/02/26 12:29:39;;;;;;;40.63;15.83;;;8.00;35.60;;;;;;5005205;28;20488;-74
2022/02/26 12:32:06;;;;;;;47.97;15.63;;;8.10;37.90;;;;;;5017647;28;20456;-75
2022/02/26 12:34:52;;;;;;;51.67;16.80;;;8.30;35.70;;;;;;5023983;28;20396;-75